sensor_id;sensor_type;location;lat;lon;timestamp;P1;durP1;ratioP1;P2;durP2;ratioP2
16478;SDS011;8350;52.316;10.530;2022-11-20T00:01:27;17.67;;;11.48;;
16478;SDS011;8350;52.316;10.530;2022-11-20T00:03:55;16.08;;;11.73;;
16478;SDS011;8350;52.316;10.530;2022-11-20T00:06:24;17.52;;;12.10;;
16478;SDS011;8350;52.316;10.530;2022-11-20T00:08:53;16.33;;;11.80;;
16478;SDS011;8350;52.316;10.530;2022-11-20T00:11:22;16.50;;;10.98;;
16478;SDS011;8350;52.316;10.530;2022-11-20T00:13:51;17.83;;;11.77;;
16478;SDS011;8350;52.316;10.530;2022-11-20T00:16:20;13.85;;;10.90;;
16478;SDS011;8350;52.316;10.530;2022-11-20T00:18:49;15.23;;;11.65;;
16478;SDS011;8350;52.316;10.530;2022-11-20T00:21:18;15.20;;;10.70;;
16478;SDS011;8350;52.316;10.530;2022-11-20T00:23:48;15.00;;;10.43;;
16478;SDS011;8350;52.316;10.530;2022-11-20T00:26:16;15.63;;;10.65;;
16478;SDS011;8350;52.316;10.530;2022-11-20T00:28:44;13.13;;;10.02;;
16478;SDS011;8350;52.316;10.530;2022-11-20T00:31:16;14.05;;;9.50;;
16478;SDS011;8350;52.316;10.530;2022-11-20T00:33:44;12.85;;;9.80;;
16478;SDS011;8350;52.316;10.530;2022-11-20T00:36:12;13.63;;;9.38;;
16478;SDS011;8350;52.316;10.530;2022-11-20T00:38:41;13.23;;;9.68;;
16478;SDS011;8350;52.316;10.530;2022-11-20T00:41:11;12.63;;;9.88;;
16478;SDS011;8350;52.316;10.530;2022-11-20T00:43:39;13.43;;;9.25;;
16478;SDS011;8350;52.316;10.530;2022-11-20T00:46:07;11.93;;;8.65;;
16478;SDS011;8350;52.316;10.530;2022-11-20T00:48:38;12.65;;;9.75;;
16478;SDS011;8350;52.316;10.530;2022-11-20T00:51:05;14.00;;;9.52;;
16478;SDS011;8350;52.316;10.530;2022-11-20T00:53:32;12.07;;;10.35;;
16478;SDS011;8350;52.316;10.530;2022-11-20T00:56:00;11.95;;;9.13;;
16478;SDS011;8350;52.316;10.530;2022-11-20T00:58:31;10.35;;;7.82;;
16478;SDS011;8350;52.316;10.530;2022-11-20T01:00:59;12.05;;;9.45;;
16478;SDS011;8350;52.316;10.530;2022-11-20T01:03:27;13.68;;;8.85;;
16478;SDS011;8350;52.316;10.530;2022-11-20T01:05:59;11.35;;;8.95;;
16478;SDS011;8350;52.316;10.530;2022-11-20T01:08:28;15.13;;;9.05;;
16478;SDS011;8350;52.316;10.530;2022-11-20T01:10:58;12.55;;;7.78;;
16478;SDS011;8350;52.316;10.530;2022-11-20T01:13:30;12.07;;;8.45;;
16478;SDS011;8350;52.316;10.530;2022-11-20T01:16:03;12.30;;;8.35;;
16478;SDS011;8350;52.316;10.530;2022-11-20T01:18:32;9.68;;;8.40;;
16478;SDS011;8350;52.316;10.530;2022-11-20T01:21:03;11.85;;;8.52;;
16478;SDS011;8350;52.316;10.530;2022-11-20T01:23:31;9.00;;;7.45;;
16478;SDS011;8350;52.316;10.530;2022-11-20T01:26:00;11.60;;;8.60;;
16478;SDS011;8350;52.316;10.530;2022-11-20T01:28:28;10.43;;;7.10;;
16478;SDS011;8350;52.316;10.530;2022-11-20T01:30:57;11.95;;;8.75;;
16478;SDS011;8350;52.316;10.530;2022-11-20T01:33:24;11.15;;;7.10;;
16478;SDS011;8350;52.316;10.530;2022-11-20T01:35:52;9.90;;;7.97;;
16478;SDS011;8350;52.316;10.530;2022-11-20T01:38:22;10.30;;;7.90;;
16478;SDS011;8350;52.316;10.530;2022-11-20T01:40:55;11.48;;;8.32;;
16478;SDS011;8350;52.316;10.530;2022-11-20T01:43:22;13.05;;;8.68;;
16478;SDS011;8350;52.316;10.530;2022-11-20T01:46:00;11.77;;;8.85;;
16478;SDS011;8350;52.316;10.530;2022-11-20T01:48:31;10.55;;;7.95;;
16478;SDS011;8350;52.316;10.530;2022-11-20T01:51:02;9.93;;;7.35;;
16478;SDS011;8350;52.316;10.530;2022-11-20T01:53:31;11.00;;;8.20;;
16478;SDS011;8350;52.316;10.530;2022-11-20T01:56:01;9.57;;;7.82;;
16478;SDS011;8350;52.316;10.530;2022-11-20T01:58:32;10.25;;;7.90;;
16478;SDS011;8350;52.316;10.530;2022-11-20T02:01:02;10.85;;;8.55;;
16478;SDS011;8350;52.316;10.530;2022-11-20T02:03:30;10.32;;;7.47;;
16478;SDS011;8350;52.316;10.530;2022-11-20T02:06:02;9.80;;;8.65;;
16478;SDS011;8350;52.316;10.530;2022-11-20T02:08:36;10.85;;;9.15;;
16478;SDS011;8350;52.316;10.530;2022-11-20T02:11:04;11.32;;;8.15;;
16478;SDS011;8350;52.316;10.530;2022-11-20T02:13:32;10.48;;;8.52;;
16478;SDS011;8350;52.316;10.530;2022-11-20T02:16:13;11.38;;;8.38;;
16478;SDS011;8350;52.316;10.530;2022-11-20T02:18:43;9.20;;;7.40;;
16478;SDS011;8350;52.316;10.530;2022-11-20T02:21:20;10.75;;;7.82;;
16478;SDS011;8350;52.316;10.530;2022-11-20T02:26:43;9.30;;;8.07;;
16478;SDS011;8350;52.316;10.530;2022-11-20T02:29:15;10.85;;;7.72;;
16478;SDS011;8350;52.316;10.530;2022-11-20T02:31:45;11.45;;;8.55;;
16478;SDS011;8350;52.316;10.530;2022-11-20T02:34:13;11.95;;;7.68;;
16478;SDS011;8350;52.316;10.530;2022-11-20T02:36:40;9.27;;;7.38;;
16478;SDS011;8350;52.316;10.530;2022-11-20T02:39:09;11.60;;;8.48;;
16478;SDS011;8350;52.316;10.530;2022-11-20T02:41:39;10.15;;;8.07;;
16478;SDS011;8350;52.316;10.530;2022-11-20T02:44:06;11.50;;;8.32;;
16478;SDS011;8350;52.316;10.530;2022-11-20T02:46:33;11.35;;;8.85;;
16478;SDS011;8350;52.316;10.530;2022-11-20T02:49:01;10.95;;;8.35;;
16478;SDS011;8350;52.316;10.530;2022-11-20T02:51:29;12.65;;;9.27;;
16478;SDS011;8350;52.316;10.530;2022-11-20T02:53:56;11.80;;;9.38;;
16478;SDS011;8350;52.316;10.530;2022-11-20T02:56:23;12.15;;;8.02;;
16478;SDS011;8350;52.316;10.530;2022-11-20T02:58:52;11.98;;;8.73;;
16478;SDS011;8350;52.316;10.530;2022-11-20T03:01:19;12.23;;;7.95;;
16478;SDS011;8350;52.316;10.530;2022-11-20T03:03:46;11.23;;;8.30;;
16478;SDS011;8350;52.316;10.530;2022-11-20T03:06:13;13.35;;;9.20;;
16478;SDS011;8350;52.316;10.530;2022-11-20T03:08:41;11.52;;;8.80;;
16478;SDS011;8350;52.316;10.530;2022-11-20T03:11:08;12.30;;;8.13;;
16478;SDS011;8350;52.316;10.530;2022-11-20T03:13:35;10.60;;;8.80;;
16478;SDS011;8350;52.316;10.530;2022-11-20T03:16:12;10.98;;;8.65;;
16478;SDS011;8350;52.316;10.530;2022-11-20T03:18:40;10.80;;;8.23;;
16478;SDS011;8350;52.316;10.530;2022-11-20T03:21:08;14.45;;;9.15;;
16478;SDS011;8350;52.316;10.530;2022-11-20T03:23:36;12.23;;;8.93;;
16478;SDS011;8350;52.316;10.530;2022-11-20T03:26:14;11.88;;;8.77;;
16478;SDS011;8350;52.316;10.530;2022-11-20T03:28:46;11.65;;;8.02;;
16478;SDS011;8350;52.316;10.530;2022-11-20T03:31:18;9.98;;;8.10;;
16478;SDS011;8350;52.316;10.530;2022-11-20T03:33:50;10.23;;;8.48;;
16478;SDS011;8350;52.316;10.530;2022-11-20T03:36:18;9.23;;;7.55;;
16478;SDS011;8350;52.316;10.530;2022-11-20T03:38:46;10.95;;;8.07;;
16478;SDS011;8350;52.316;10.530;2022-11-20T03:41:14;12.18;;;8.65;;
16478;SDS011;8350;52.316;10.530;2022-11-20T03:43:41;11.77;;;9.07;;
16478;SDS011;8350;52.316;10.530;2022-11-20T03:46:12;11.20;;;8.73;;
16478;SDS011;8350;52.316;10.530;2022-11-20T03:48:41;13.05;;;9.38;;
16478;SDS011;8350;52.316;10.530;2022-11-20T03:51:08;12.75;;;9.23;;
16478;SDS011;8350;52.316;10.530;2022-11-20T03:53:36;13.23;;;9.30;;
16478;SDS011;8350;52.316;10.530;2022-11-20T03:56:03;11.57;;;8.95;;
16478;SDS011;8350;52.316;10.530;2022-11-20T03:58:32;11.98;;;9.45;;
16478;SDS011;8350;52.316;10.530;2022-11-20T04:01:03;10.38;;;8.57;;
16478;SDS011;8350;52.316;10.530;2022-11-20T04:03:31;11.23;;;7.93;;
16478;SDS011;8350;52.316;10.530;2022-11-20T04:06:02;10.75;;;8.05;;
16478;SDS011;8350;52.316;10.530;2022-11-20T04:08:30;11.55;;;8.55;;
16478;SDS011;8350;52.316;10.530;2022-11-20T04:11:01;11.60;;;8.20;;
16478;SDS011;8350;52.316;10.530;2022-11-20T04:13:36;9.10;;;7.82;;
16478;SDS011;8350;52.316;10.530;2022-11-20T04:16:04;11.55;;;8.60;;
16478;SDS011;8350;52.316;10.530;2022-11-20T04:18:31;11.75;;;8.70;;
16478;SDS011;8350;52.316;10.530;2022-11-20T04:20:59;11.85;;;8.80;;
16478;SDS011;8350;52.316;10.530;2022-11-20T04:23:27;10.32;;;7.88;;
16478;SDS011;8350;52.316;10.530;2022-11-20T04:26:00;10.13;;;8.60;;
16478;SDS011;8350;52.316;10.530;2022-11-20T04:28:28;9.70;;;7.95;;
16478;SDS011;8350;52.316;10.530;2022-11-20T04:31:00;11.40;;;8.35;;
16478;SDS011;8350;52.316;10.530;2022-11-20T04:33:28;11.15;;;8.10;;
16478;SDS011;8350;52.316;10.530;2022-11-20T04:35:59;10.05;;;8.57;;
16478;SDS011;8350;52.316;10.530;2022-11-20T04:38:29;10.35;;;8.32;;
16478;SDS011;8350;52.316;10.530;2022-11-20T04:40:57;17.75;;;9.50;;
16478;SDS011;8350;52.316;10.530;2022-11-20T04:43:24;12.30;;;8.55;;
16478;SDS011;8350;52.316;10.530;2022-11-20T04:45:52;10.27;;;8.50;;
16478;SDS011;8350;52.316;10.530;2022-11-20T04:48:19;12.23;;;8.68;;
16478;SDS011;8350;52.316;10.530;2022-11-20T04:50:47;10.85;;;8.20;;
16478;SDS011;8350;52.316;10.530;2022-11-20T04:53:14;11.68;;;9.02;;
16478;SDS011;8350;52.316;10.530;2022-11-20T04:55:44;11.45;;;9.02;;
16478;SDS011;8350;52.316;10.530;2022-11-20T04:58:13;12.30;;;8.60;;
16478;SDS011;8350;52.316;10.530;2022-11-20T05:00:40;12.40;;;8.88;;
16478;SDS011;8350;52.316;10.530;2022-11-20T05:03:07;11.48;;;9.20;;
16478;SDS011;8350;52.316;10.530;2022-11-20T05:05:34;12.32;;;8.90;;
16478;SDS011;8350;52.316;10.530;2022-11-20T05:08:01;13.32;;;10.25;;
16478;SDS011;8350;52.316;10.530;2022-11-20T05:10:28;14.13;;;8.98;;
16478;SDS011;8350;52.316;10.530;2022-11-20T05:12:58;13.48;;;9.32;;
16478;SDS011;8350;52.316;10.530;2022-11-20T05:15:25;12.35;;;8.82;;
16478;SDS011;8350;52.316;10.530;2022-11-20T05:17:51;10.57;;;8.25;;
16478;SDS011;8350;52.316;10.530;2022-11-20T05:20:26;11.00;;;8.15;;
16478;SDS011;8350;52.316;10.530;2022-11-20T05:22:56;11.57;;;8.68;;
16478;SDS011;8350;52.316;10.530;2022-11-20T05:25:22;12.77;;;9.32;;
16478;SDS011;8350;52.316;10.530;2022-11-20T05:27:51;11.68;;;8.60;;
16478;SDS011;8350;52.316;10.530;2022-11-20T05:30:20;11.13;;;9.65;;
16478;SDS011;8350;52.316;10.530;2022-11-20T05:32:47;11.05;;;8.63;;
16478;SDS011;8350;52.316;10.530;2022-11-20T05:35:14;11.95;;;9.30;;
16478;SDS011;8350;52.316;10.530;2022-11-20T05:37:43;11.00;;;9.18;;
16478;SDS011;8350;52.316;10.530;2022-11-20T05:40:11;12.50;;;8.43;;
16478;SDS011;8350;52.316;10.530;2022-11-20T05:42:39;9.93;;;8.30;;
16478;SDS011;8350;52.316;10.530;2022-11-20T05:45:08;10.95;;;9.20;;
16478;SDS011;8350;52.316;10.530;2022-11-20T05:47:39;10.73;;;8.32;;
16478;SDS011;8350;52.316;10.530;2022-11-20T05:50:06;11.27;;;8.40;;
16478;SDS011;8350;52.316;10.530;2022-11-20T05:52:33;10.98;;;8.60;;
16478;SDS011;8350;52.316;10.530;2022-11-20T05:55:02;11.82;;;8.90;;
16478;SDS011;8350;52.316;10.530;2022-11-20T05:57:29;13.05;;;8.77;;
16478;SDS011;8350;52.316;10.530;2022-11-20T05:59:57;11.70;;;9.02;;
16478;SDS011;8350;52.316;10.530;2022-11-20T06:02:24;11.48;;;9.18;;
16478;SDS011;8350;52.316;10.530;2022-11-20T06:04:55;13.70;;;8.82;;
16478;SDS011;8350;52.316;10.530;2022-11-20T06:07:22;11.57;;;8.95;;
16478;SDS011;8350;52.316;10.530;2022-11-20T06:09:49;12.55;;;9.25;;
16478;SDS011;8350;52.316;10.530;2022-11-20T06:12:16;12.68;;;9.18;;
16478;SDS011;8350;52.316;10.530;2022-11-20T06:14:43;12.90;;;8.98;;
16478;SDS011;8350;52.316;10.530;2022-11-20T06:17:10;10.43;;;8.60;;
16478;SDS011;8350;52.316;10.530;2022-11-20T06:19:37;13.38;;;9.32;;
16478;SDS011;8350;52.316;10.530;2022-11-20T06:22:05;12.63;;;8.90;;
16478;SDS011;8350;52.316;10.530;2022-11-20T06:24:32;11.48;;;8.75;;
16478;SDS011;8350;52.316;10.530;2022-11-20T06:27:04;12.07;;;8.73;;
16478;SDS011;8350;52.316;10.530;2022-11-20T06:29:31;12.20;;;8.82;;
16478;SDS011;8350;52.316;10.530;2022-11-20T06:31:59;12.20;;;9.00;;
16478;SDS011;8350;52.316;10.530;2022-11-20T06:34:27;12.07;;;9.45;;
16478;SDS011;8350;52.316;10.530;2022-11-20T06:36:53;14.63;;;8.57;;
16478;SDS011;8350;52.316;10.530;2022-11-20T06:39:22;11.48;;;8.63;;
16478;SDS011;8350;52.316;10.530;2022-11-20T06:41:49;13.02;;;8.93;;
16478;SDS011;8350;52.316;10.530;2022-11-20T06:44:15;13.07;;;9.32;;
16478;SDS011;8350;52.316;10.530;2022-11-20T06:46:42;13.13;;;9.38;;
16478;SDS011;8350;52.316;10.530;2022-11-20T06:49:12;13.35;;;9.10;;
16478;SDS011;8350;52.316;10.530;2022-11-20T06:51:39;11.50;;;9.10;;
16478;SDS011;8350;52.316;10.530;2022-11-20T06:54:06;12.77;;;9.38;;
16478;SDS011;8350;52.316;10.530;2022-11-20T06:56:36;11.25;;;8.40;;
16478;SDS011;8350;52.316;10.530;2022-11-20T06:59:05;11.05;;;8.82;;
16478;SDS011;8350;52.316;10.530;2022-11-20T07:01:33;10.55;;;8.75;;
16478;SDS011;8350;52.316;10.530;2022-11-20T07:04:02;11.38;;;8.63;;
16478;SDS011;8350;52.316;10.530;2022-11-20T07:06:30;11.60;;;9.32;;
16478;SDS011;8350;52.316;10.530;2022-11-20T07:08:57;12.45;;;8.93;;
16478;SDS011;8350;52.316;10.530;2022-11-20T07:11:24;12.32;;;8.90;;
16478;SDS011;8350;52.316;10.530;2022-11-20T07:13:56;11.90;;;9.10;;
16478;SDS011;8350;52.316;10.530;2022-11-20T07:16:40;11.05;;;8.77;;
16478;SDS011;8350;52.316;10.530;2022-11-20T07:19:07;12.20;;;9.20;;
16478;SDS011;8350;52.316;10.530;2022-11-20T07:21:34;9.65;;;7.63;;
16478;SDS011;8350;52.316;10.530;2022-11-20T07:24:03;13.45;;;9.70;;
16478;SDS011;8350;52.316;10.530;2022-11-20T07:26:30;10.95;;;9.52;;
16478;SDS011;8350;52.316;10.530;2022-11-20T07:28:59;12.15;;;9.07;;
16478;SDS011;8350;52.316;10.530;2022-11-20T07:31:26;13.88;;;8.93;;
16478;SDS011;8350;52.316;10.530;2022-11-20T07:33:53;11.90;;;9.27;;
16478;SDS011;8350;52.316;10.530;2022-11-20T07:36:20;10.90;;;8.45;;
16478;SDS011;8350;52.316;10.530;2022-11-20T07:38:47;11.52;;;8.73;;
16478;SDS011;8350;52.316;10.530;2022-11-20T07:41:14;11.48;;;8.98;;
16478;SDS011;8350;52.316;10.530;2022-11-20T07:43:41;11.32;;;8.75;;
16478;SDS011;8350;52.316;10.530;2022-11-20T07:46:10;12.88;;;10.02;;
16478;SDS011;8350;52.316;10.530;2022-11-20T07:48:37;10.10;;;8.52;;
16478;SDS011;8350;52.316;10.530;2022-11-20T07:51:03;10.65;;;8.35;;
16478;SDS011;8350;52.316;10.530;2022-11-20T07:53:30;11.05;;;8.77;;
16478;SDS011;8350;52.316;10.530;2022-11-20T07:55:59;11.32;;;9.68;;
16478;SDS011;8350;52.316;10.530;2022-11-20T07:58:26;11.48;;;9.10;;
16478;SDS011;8350;52.316;10.530;2022-11-20T08:00:57;13.75;;;9.77;;
16478;SDS011;8350;52.316;10.530;2022-11-20T08:03:29;14.43;;;9.95;;
16478;SDS011;8350;52.316;10.530;2022-11-20T08:05:58;11.10;;;9.10;;
16478;SDS011;8350;52.316;10.530;2022-11-20T08:08:28;11.27;;;8.55;;
16478;SDS011;8350;52.316;10.530;2022-11-20T08:10:56;9.45;;;7.90;;
16478;SDS011;8350;52.316;10.530;2022-11-20T08:13:43;10.98;;;8.52;;
16478;SDS011;8350;52.316;10.530;2022-11-20T08:16:27;12.93;;;8.65;;
16478;SDS011;8350;52.316;10.530;2022-11-20T08:18:59;11.82;;;8.63;;
16478;SDS011;8350;52.316;10.530;2022-11-20T08:21:26;10.55;;;8.43;;
16478;SDS011;8350;52.316;10.530;2022-11-20T08:23:55;12.35;;;8.85;;
16478;SDS011;8350;52.316;10.530;2022-11-20T08:26:23;12.20;;;9.52;;
16478;SDS011;8350;52.316;10.530;2022-11-20T08:28:52;10.73;;;8.52;;
16478;SDS011;8350;52.316;10.530;2022-11-20T08:31:20;10.77;;;8.55;;
16478;SDS011;8350;52.316;10.530;2022-11-20T08:33:47;11.88;;;9.13;;
16478;SDS011;8350;52.316;10.530;2022-11-20T08:36:15;11.38;;;8.68;;
16478;SDS011;8350;52.316;10.530;2022-11-20T08:38:46;14.10;;;9.90;;
16478;SDS011;8350;52.316;10.530;2022-11-20T08:41:14;10.82;;;9.05;;
16478;SDS011;8350;52.316;10.530;2022-11-20T08:43:50;10.63;;;9.05;;
16478;SDS011;8350;52.316;10.530;2022-11-20T08:46:18;9.95;;;8.25;;
16478;SDS011;8350;52.316;10.530;2022-11-20T08:48:45;9.20;;;7.93;;
16478;SDS011;8350;52.316;10.530;2022-11-20T08:51:12;9.90;;;8.30;;
16478;SDS011;8350;52.316;10.530;2022-11-20T08:53:41;10.15;;;7.78;;
16478;SDS011;8350;52.316;10.530;2022-11-20T08:56:09;9.05;;;7.45;;
16478;SDS011;8350;52.316;10.530;2022-11-20T08:58:36;11.70;;;8.27;;
16478;SDS011;8350;52.316;10.530;2022-11-20T09:01:03;11.00;;;8.45;;
16478;SDS011;8350;52.316;10.530;2022-11-20T09:03:30;8.27;;;6.95;;
16478;SDS011;8350;52.316;10.530;2022-11-20T09:05:58;8.93;;;7.18;;
16478;SDS011;8350;52.316;10.530;2022-11-20T09:08:26;10.88;;;8.27;;
16478;SDS011;8350;52.316;10.530;2022-11-20T09:10:55;11.20;;;8.00;;
16478;SDS011;8350;52.316;10.530;2022-11-20T09:13:26;16.15;;;10.85;;
16478;SDS011;8350;52.316;10.530;2022-11-20T09:15:58;11.85;;;10.10;;
16478;SDS011;8350;52.316;10.530;2022-11-20T09:18:26;19.88;;;12.95;;
16478;SDS011;8350;52.316;10.530;2022-11-20T09:20:56;12.07;;;9.45;;
16478;SDS011;8350;52.316;10.530;2022-11-20T09:23:23;12.38;;;9.75;;
16478;SDS011;8350;52.316;10.530;2022-11-20T09:25:51;10.88;;;8.23;;
16478;SDS011;8350;52.316;10.530;2022-11-20T09:28:22;11.80;;;9.50;;
16478;SDS011;8350;52.316;10.530;2022-11-20T09:30:48;11.77;;;9.93;;
16478;SDS011;8350;52.316;10.530;2022-11-20T09:33:15;13.48;;;10.77;;
16478;SDS011;8350;52.316;10.530;2022-11-20T09:35:42;13.80;;;9.63;;
16478;SDS011;8350;52.316;10.530;2022-11-20T09:38:10;23.88;;;16.95;;
16478;SDS011;8350;52.316;10.530;2022-11-20T09:40:39;15.32;;;12.05;;
16478;SDS011;8350;52.316;10.530;2022-11-20T09:43:15;16.55;;;14.23;;
16478;SDS011;8350;52.316;10.530;2022-11-20T09:45:53;12.93;;;11.40;;
16478;SDS011;8350;52.316;10.530;2022-11-20T09:51:16;13.52;;;9.00;;
16478;SDS011;8350;52.316;10.530;2022-11-20T09:53:55;16.40;;;10.48;;
16478;SDS011;8350;52.316;10.530;2022-11-20T09:56:31;13.88;;;8.85;;
16478;SDS011;8350;52.316;10.530;2022-11-20T09:59:02;9.40;;;7.93;;
16478;SDS011;8350;52.316;10.530;2022-11-20T10:01:33;13.00;;;9.52;;
16478;SDS011;8350;52.316;10.530;2022-11-20T10:04:06;12.32;;;9.35;;
16478;SDS011;8350;52.316;10.530;2022-11-20T10:06:40;10.07;;;7.85;;
16478;SDS011;8350;52.316;10.530;2022-11-20T10:09:16;8.70;;;7.05;;
16478;SDS011;8350;52.316;10.530;2022-11-20T10:11:51;8.98;;;7.90;;
16478;SDS011;8350;52.316;10.530;2022-11-20T10:14:29;11.77;;;8.50;;
16478;SDS011;8350;52.316;10.530;2022-11-20T10:17:09;9.68;;;7.68;;
16478;SDS011;8350;52.316;10.530;2022-11-20T10:19:50;9.98;;;8.30;;
16478;SDS011;8350;52.316;10.530;2022-11-20T10:22:29;10.63;;;8.73;;
16478;SDS011;8350;52.316;10.530;2022-11-20T10:25:05;10.25;;;8.18;;
16478;SDS011;8350;52.316;10.530;2022-11-20T10:27:43;11.38;;;9.55;;
16478;SDS011;8350;52.316;10.530;2022-11-20T10:30:23;11.35;;;9.00;;
16478;SDS011;8350;52.316;10.530;2022-11-20T10:32:53;9.98;;;7.88;;
16478;SDS011;8350;52.316;10.530;2022-11-20T10:35:27;10.55;;;8.73;;
16478;SDS011;8350;52.316;10.530;2022-11-20T10:38:00;10.25;;;8.18;;
16478;SDS011;8350;52.316;10.530;2022-11-20T10:40:32;10.02;;;7.60;;
16478;SDS011;8350;52.316;10.530;2022-11-20T10:43:06;10.73;;;9.20;;
16478;SDS011;8350;52.316;10.530;2022-11-20T10:45:49;12.27;;;10.20;;
16478;SDS011;8350;52.316;10.530;2022-11-20T10:48:22;12.75;;;8.88;;
16478;SDS011;8350;52.316;10.530;2022-11-20T10:50:55;9.80;;;8.70;;
16478;SDS011;8350;52.316;10.530;2022-11-20T10:53:47;9.95;;;7.72;;
16478;SDS011;8350;52.316;10.530;2022-11-20T10:56:33;10.68;;;8.77;;
16478;SDS011;8350;52.316;10.530;2022-11-20T10:59:20;8.98;;;8.07;;
16478;SDS011;8350;52.316;10.530;2022-11-20T11:02:14;10.13;;;8.10;;
16478;SDS011;8350;52.316;10.530;2022-11-20T11:04:44;9.57;;;8.57;;
16478;SDS011;8350;52.316;10.530;2022-11-20T11:07:13;11.15;;;8.20;;
16478;SDS011;8350;52.316;10.530;2022-11-20T11:09:44;10.32;;;8.57;;
16478;SDS011;8350;52.316;10.530;2022-11-20T11:12:14;9.13;;;7.70;;
16478;SDS011;8350;52.316;10.530;2022-11-20T11:14:44;11.95;;;8.02;;
16478;SDS011;8350;52.316;10.530;2022-11-20T11:17:24;10.88;;;8.20;;
16478;SDS011;8350;52.316;10.530;2022-11-20T11:20:02;9.15;;;8.25;;
16478;SDS011;8350;52.316;10.530;2022-11-20T11:22:32;9.98;;;8.85;;
16478;SDS011;8350;52.316;10.530;2022-11-20T11:25:00;11.48;;;8.15;;
16478;SDS011;8350;52.316;10.530;2022-11-20T11:27:31;8.73;;;7.80;;
16478;SDS011;8350;52.316;10.530;2022-11-20T11:30:14;10.48;;;8.18;;
16478;SDS011;8350;52.316;10.530;2022-11-20T11:32:47;10.07;;;8.13;;
16478;SDS011;8350;52.316;10.530;2022-11-20T11:35:38;9.18;;;7.80;;
16478;SDS011;8350;52.316;10.530;2022-11-20T11:38:19;9.13;;;7.68;;
16478;SDS011;8350;52.316;10.530;2022-11-20T11:41:01;8.63;;;7.43;;
16478;SDS011;8350;52.316;10.530;2022-11-20T11:46:35;8.13;;;6.38;;
16478;SDS011;8350;52.316;10.530;2022-11-20T11:49:11;8.77;;;7.88;;
16478;SDS011;8350;52.316;10.530;2022-11-20T11:51:47;9.88;;;8.10;;
16478;SDS011;8350;52.316;10.530;2022-11-20T11:54:42;14.55;;;11.52;;
16478;SDS011;8350;52.316;10.530;2022-11-20T11:57:16;8.13;;;7.30;;
16478;SDS011;8350;52.316;10.530;2022-11-20T11:59:57;9.70;;;8.70;;
16478;SDS011;8350;52.316;10.530;2022-11-20T12:02:31;11.55;;;9.45;;
16478;SDS011;8350;52.316;10.530;2022-11-20T12:05:05;10.95;;;8.70;;
16478;SDS011;8350;52.316;10.530;2022-11-20T12:07:43;9.50;;;8.10;;
16478;SDS011;8350;52.316;10.530;2022-11-20T12:10:18;9.63;;;8.23;;
16478;SDS011;8350;52.316;10.530;2022-11-20T12:12:49;11.52;;;9.23;;
16478;SDS011;8350;52.316;10.530;2022-11-20T12:15:28;8.20;;;7.32;;
16478;SDS011;8350;52.316;10.530;2022-11-20T12:18:01;10.05;;;9.05;;
16478;SDS011;8350;52.316;10.530;2022-11-20T12:20:32;9.38;;;8.38;;
16478;SDS011;8350;52.316;10.530;2022-11-20T12:23:08;9.52;;;8.50;;
16478;SDS011;8350;52.316;10.530;2022-11-20T12:25:47;8.38;;;7.40;;
16478;SDS011;8350;52.316;10.530;2022-11-20T12:28:29;8.85;;;7.95;;
16478;SDS011;8350;52.316;10.530;2022-11-20T12:31:24;8.68;;;7.78;;
16478;SDS011;8350;52.316;10.530;2022-11-20T12:34:32;10.07;;;7.28;;
16478;SDS011;8350;52.316;10.530;2022-11-20T12:37:12;7.88;;;7.07;;
16478;SDS011;8350;52.316;10.530;2022-11-20T12:39:54;9.77;;;7.88;;
16478;SDS011;8350;52.316;10.530;2022-11-20T12:42:35;10.25;;;9.25;;
16478;SDS011;8350;52.316;10.530;2022-11-20T12:45:35;8.45;;;6.88;;
16478;SDS011;8350;52.316;10.530;2022-11-20T12:48:41;8.95;;;7.13;;
16478;SDS011;8350;52.316;10.530;2022-11-20T12:51:42;8.18;;;6.63;;
16478;SDS011;8350;52.316;10.530;2022-11-20T12:54:47;8.43;;;6.93;;
16478;SDS011;8350;52.316;10.530;2022-11-20T12:57:36;8.23;;;7.20;;
16478;SDS011;8350;52.316;10.530;2022-11-20T13:00:14;8.40;;;7.53;;
16478;SDS011;8350;52.316;10.530;2022-11-20T13:03:00;11.40;;;7.45;;
16478;SDS011;8350;52.316;10.530;2022-11-20T13:05:43;8.82;;;7.93;;
16478;SDS011;8350;52.316;10.530;2022-11-20T13:08:19;13.13;;;8.00;;
16478;SDS011;8350;52.316;10.530;2022-11-20T13:10:54;8.27;;;7.40;;
16478;SDS011;8350;52.316;10.530;2022-11-20T13:13:29;9.48;;;8.07;;
16478;SDS011;8350;52.316;10.530;2022-11-20T13:16:03;7.85;;;7.05;;
16478;SDS011;8350;52.316;10.530;2022-11-20T13:18:38;8.90;;;8.05;;
16478;SDS011;8350;52.316;10.530;2022-11-20T13:21:14;9.65;;;7.55;;
16478;SDS011;8350;52.316;10.530;2022-11-20T13:23:42;8.30;;;7.50;;
16478;SDS011;8350;52.316;10.530;2022-11-20T13:26:18;8.45;;;6.70;;
16478;SDS011;8350;52.316;10.530;2022-11-20T13:28:47;7.50;;;6.32;;
16478;SDS011;8350;52.316;10.530;2022-11-20T13:31:30;7.10;;;6.35;;
16478;SDS011;8350;52.316;10.530;2022-11-20T13:33:59;7.38;;;6.63;;
16478;SDS011;8350;52.316;10.530;2022-11-20T13:36:28;7.63;;;6.38;;
16478;SDS011;8350;52.316;10.530;2022-11-20T13:38:57;7.85;;;6.50;;
16478;SDS011;8350;52.316;10.530;2022-11-20T13:41:27;6.78;;;5.85;;
16478;SDS011;8350;52.316;10.530;2022-11-20T13:44:04;7.47;;;6.53;;
16478;SDS011;8350;52.316;10.530;2022-11-20T13:46:37;7.65;;;6.45;;
16478;SDS011;8350;52.316;10.530;2022-11-20T13:49:09;8.10;;;7.32;;
16478;SDS011;8350;52.316;10.530;2022-11-20T13:51:43;6.45;;;5.65;;
16478;SDS011;8350;52.316;10.530;2022-11-20T13:54:24;7.10;;;6.25;;
16478;SDS011;8350;52.316;10.530;2022-11-20T14:00:16;8.95;;;6.90;;
16478;SDS011;8350;52.316;10.530;2022-11-20T14:02:46;7.68;;;6.07;;
16478;SDS011;8350;52.316;10.530;2022-11-20T14:05:28;8.75;;;6.40;;
16478;SDS011;8350;52.316;10.530;2022-11-20T14:08:00;7.70;;;6.90;;
16478;SDS011;8350;52.316;10.530;2022-11-20T14:10:30;7.45;;;6.65;;
16478;SDS011;8350;52.316;10.530;2022-11-20T14:13:09;8.07;;;7.28;;
16478;SDS011;8350;52.316;10.530;2022-11-20T14:15:39;9.82;;;6.95;;
16478;SDS011;8350;52.316;10.530;2022-11-20T14:18:11;8.35;;;7.55;;
16478;SDS011;8350;52.316;10.530;2022-11-20T14:20:43;8.35;;;6.93;;
16478;SDS011;8350;52.316;10.530;2022-11-20T14:23:11;7.35;;;6.30;;
16478;SDS011;8350;52.316;10.530;2022-11-20T14:25:41;7.65;;;6.40;;
16478;SDS011;8350;52.316;10.530;2022-11-20T14:28:17;9.32;;;7.25;;
16478;SDS011;8350;52.316;10.530;2022-11-20T14:30:53;8.68;;;6.20;;
16478;SDS011;8350;52.316;10.530;2022-11-20T14:33:21;9.35;;;6.97;;
16478;SDS011;8350;52.316;10.530;2022-11-20T14:35:53;10.13;;;7.25;;
16478;SDS011;8350;52.316;10.530;2022-11-20T14:38:22;7.97;;;6.70;;
16478;SDS011;8350;52.316;10.530;2022-11-20T14:40:52;8.65;;;6.40;;
16478;SDS011;8350;52.316;10.530;2022-11-20T14:43:21;7.93;;;7.13;;
16478;SDS011;8350;52.316;10.530;2022-11-20T14:45:54;8.32;;;7.45;;
16478;SDS011;8350;52.316;10.530;2022-11-20T14:48:23;9.07;;;6.65;;
16478;SDS011;8350;52.316;10.530;2022-11-20T14:50:56;8.18;;;7.35;;
16478;SDS011;8350;52.316;10.530;2022-11-20T14:53:23;7.72;;;6.88;;
16478;SDS011;8350;52.316;10.530;2022-11-20T14:55:54;7.57;;;6.60;;
16478;SDS011;8350;52.316;10.530;2022-11-20T14:58:25;9.20;;;8.30;;
16478;SDS011;8350;52.316;10.530;2022-11-20T15:00:54;8.27;;;7.40;;
16478;SDS011;8350;52.316;10.530;2022-11-20T15:03:22;8.93;;;7.60;;
16478;SDS011;8350;52.316;10.530;2022-11-20T15:05:50;10.82;;;8.40;;
16478;SDS011;8350;52.316;10.530;2022-11-20T15:08:17;8.90;;;8.00;;
16478;SDS011;8350;52.316;10.530;2022-11-20T15:10:45;9.77;;;8.10;;
16478;SDS011;8350;52.316;10.530;2022-11-20T15:13:15;9.13;;;8.00;;
16478;SDS011;8350;52.316;10.530;2022-11-20T15:15:48;10.20;;;8.32;;